Time;durP1;ratioP1;P1;durP2;ratioP2;P2;SDS_P1;SDS_P2;PMS_P1;PMS_P2;Temp;Humidity;BMP_temperature;BMP_pressure;BME280_temperature;BME280_humidity;BME280_pressure;Samples;Min_cycle;Max_cycle;Signal;HPM_P1;HPM_P2
2022/05/27 00:01:26;;;;;;;2.80;2.17;;;15.20;99.90;;;;;;5055847;28;20177;-74
2022/05/27 00:03:52;;;;;;;4.00;2.33;;;15.10;99.90;;;;;;5072423;28;20180;-74
2022/05/27 00:06:18;;;;;;;4.70;2.10;;;15.20;99.90;;;;;;5055475;28;20205;-74
2022/05/27 00:08:44;;;;;;;2.27;2.07;;;15.20;99.90;;;;;;5055782;28;20295;-74
2022/05/27 00:11:12;;;;;;;3.17;2.13;;;15.10;99.90;;;;;;5055480;28;20649;-74
2022/05/27 00:13:39;;;;;;;2.30;1.97;;;15.20;99.90;;;;;;5055927;28;20180;-74
2022/05/27 00:16:05;;;;;;;3.83;2.13;;;15.20;99.90;;;;;;5073251;28;20208;-74
2022/05/27 00:18:31;;;;;;;3.27;2.10;;;15.20;99.90;;;;;;5071857;28;20259;-74
2022/05/27 00:20:57;;;;;;;3.57;1.90;;;15.20;99.90;;;;;;5055416;28;20270;-74
2022/05/27 00:23:23;;;;;;;3.87;2.20;;;15.10;99.90;;;;;;5055166;28;20177;-75
2022/05/27 00:25:49;;;;;;;3.27;2.30;;;15.10;99.90;;;;;;5054929;28;20199;-74
2022/05/27 00:28:14;;;;;;;4.07;2.27;;;15.10;99.90;;;;;;5055139;28;20177;-74
2022/05/27 00:30:41;;;;;;;4.90;2.30;;;15.10;99.90;;;;;;5071969;28;20169;-74
2022/05/27 00:33:06;;;;;;;3.27;2.20;;;15.10;99.90;;;;;;5071589;28;20655;-75
2022/05/27 00:35:33;;;;;;;4.47;2.20;;;15.10;99.90;;;;;;5055033;28;20243;-74
2022/05/27 00:37:58;;;;;;;5.83;2.33;;;15.10;99.90;;;;;;5071618;28;20180;-74
2022/05/27 00:40:25;;;;;;;2.67;2.00;;;15.20;99.90;;;;;;5054768;28;20185;-74
2022/05/27 00:42:52;;;;;;;3.47;2.13;;;15.10;99.90;;;;;;5055101;28;20246;-74
2022/05/27 00:45:25;;;;;;;4.20;2.03;;;15.20;99.90;;;;;;5054986;28;20219;-74
2022/05/27 00:47:54;;;;;;;3.37;2.33;;;15.20;99.90;;;;;;5071602;28;20211;-74
2022/05/27 00:50:25;;;;;;;4.70;2.10;;;15.20;99.90;;;;;;5054892;28;20177;-74
2022/05/27 00:52:51;;;;;;;4.10;2.00;;;15.20;99.90;;;;;;5070641;28;20179;-74
2022/05/27 00:55:23;;;;;;;4.63;2.37;;;15.30;99.90;;;;;;5054711;28;20200;-74
2022/05/27 00:57:53;;;;;;;2.23;2.00;;;15.30;99.90;;;;;;5071572;28;20173;-74
2022/05/27 01:00:23;;;;;;;3.03;2.00;;;15.30;99.90;;;;;;5055135;28;20181;-75
2022/05/27 01:02:50;;;;;;;3.73;1.97;;;15.30;99.90;;;;;;5071019;28;20262;-74
2022/05/27 01:05:18;;;;;;;3.77;2.10;;;15.30;99.90;;;;;;5072394;28;20706;-74
2022/05/27 01:07:44;;;;;;;3.77;1.90;;;15.30;99.90;;;;;;5054611;28;20293;-74
2022/05/27 01:10:13;;;;;;;2.53;1.80;;;15.30;99.90;;;;;;5072420;28;20231;-74
2022/05/27 01:13:13;;;;;;;4.90;1.83;;;15.30;99.90;;;;;;5070966;28;20196;-74
2022/05/27 01:15:57;;;;;;;2.70;1.90;;;15.40;99.90;;;;;;5070978;28;20215;-74
2022/05/27 01:21:53;;;;;;;4.13;2.03;;;15.30;99.90;;;;;;5072443;28;20314;-74
2022/05/27 01:24:40;;;;;;;2.87;1.83;;;15.30;99.90;;;;;;5054004;28;20185;-74
2022/05/27 01:27:23;;;;;;;3.20;2.03;;;15.30;99.90;;;;;;5054240;28;20216;-74
2022/05/27 01:30:19;;;;;;;3.27;1.90;;;15.40;99.90;;;;;;5071004;28;20173;-75
2022/05/27 01:32:55;;;;;;;3.87;1.83;;;15.30;99.90;;;;;;5054033;28;20183;-74
2022/05/27 01:35:28;;;;;;;2.93;2.10;;;15.40;99.90;;;;;;5072300;28;20180;-74
2022/05/27 01:38:05;;;;;;;2.97;1.77;;;15.30;99.90;;;;;;5054165;28;20238;-74
2022/05/27 01:40:50;;;;;;;3.47;2.00;;;15.30;99.90;;;;;;5072224;28;20538;-74
2022/05/27 01:43:26;;;;;;;3.97;1.90;;;15.20;99.90;;;;;;5071838;28;20279;-74
2022/05/27 01:46:04;;;;;;;3.20;2.10;;;15.20;99.90;;;;;;5070792;28;20583;-74
2022/05/27 01:49:16;;;;;;;3.40;1.90;;;15.20;99.90;;;;;;5054130;28;20172;-74
2022/05/27 01:51:52;;;;;;;3.33;1.80;;;15.20;99.90;;;;;;5016728;28;20266;-74
2022/05/27 01:54:23;;;;;;;2.57;1.77;;;15.20;99.90;;;;;;5070555;28;20587;-74
2022/05/27 01:56:55;;;;;;;2.77;1.80;;;15.20;99.90;;;;;;5053998;28;20263;-74
2022/05/27 01:59:48;;;;;;;2.73;2.00;;;15.30;99.90;;;;;;5070685;28;20243;-74
2022/05/27 02:02:19;;;;;;;3.40;1.80;;;15.30;99.90;;;;;;5040041;28;20236;-74
2022/05/27 02:04:50;;;;;;;2.97;1.77;;;15.20;99.90;;;;;;5074261;28;20253;-74
2022/05/27 02:07:28;;;;;;;4.30;2.00;;;15.30;99.90;;;;;;5057911;28;20204;-74
2022/05/27 02:10:03;;;;;;;3.20;1.80;;;15.30;99.90;;;;;;5074607;28;20177;-74
2022/05/27 02:12:56;;;;;;;2.23;1.50;;;15.30;99.90;;;;;;5075634;28;20204;-74
2022/05/27 02:15:45;;;;;;;3.13;1.80;;;15.40;99.90;;;;;;5074539;28;20201;-74
2022/05/27 02:18:28;;;;;;;3.13;1.80;;;15.40;99.90;;;;;;5057480;28;20663;-74
2022/05/27 02:20:59;;;;;;;3.10;1.70;;;15.30;99.90;;;;;;5074790;28;20177;-74
2022/05/27 02:23:35;;;;;;;3.60;1.80;;;15.30;99.90;;;;;;5057641;28;20192;-74
2022/05/27 02:26:06;;;;;;;3.50;1.80;;;15.30;99.90;;;;;;5074334;28;20201;-74
2022/05/27 02:28:38;;;;;;;3.00;1.90;;;15.20;99.90;;;;;;5057477;28;20173;-74
2022/05/27 02:31:22;;;;;;;5.27;1.83;;;15.20;99.90;;;;;;5074218;28;20177;-74
2022/05/27 02:37:03;;;;;;;3.20;1.83;;;15.20;99.90;;;;;;5075696;28;20204;-74
2022/05/27 02:39:29;;;;;;;1.83;1.60;;;15.20;99.90;;;;;;5020187;28;20275;-74
2022/05/27 02:42:10;;;;;;;3.80;1.83;;;15.30;99.90;;;;;;5057074;28;20238;-75
2022/05/27 02:44:49;;;;;;;3.27;1.70;;;15.30;99.90;;;;;;5074003;28;20217;-74
2022/05/27 02:47:22;;;;;;;3.03;1.90;;;15.30;99.90;;;;;;5073862;28;20204;-74
2022/05/27 02:49:52;;;;;;;3.33;1.83;;;15.30;99.90;;;;;;5074986;28;20168;-74
2022/05/27 02:52:35;;;;;;;2.27;1.67;;;15.30;99.90;;;;;;5073506;28;20173;-74
2022/05/27 02:55:23;;;;;;;3.10;1.97;;;15.30;99.90;;;;;;5074748;28;20193;-74
2022/05/27 02:57:51;;;;;;;2.93;1.83;;;15.30;99.90;;;;;;5073560;28;20186;-75
2022/05/27 03:00:22;;;;;;;2.47;1.70;;;15.20;99.90;;;;;;5073507;28;20185;-74
2022/05/27 03:02:48;;;;;;;3.13;1.80;;;15.20;99.90;;;;;;5040135;28;20191;-74
2022/05/27 03:05:17;;;;;;;3.67;1.93;;;15.20;99.90;;;;;;5073334;28;20208;-74
2022/05/27 03:08:02;;;;;;;2.80;1.80;;;15.20;99.90;;;;;;5056673;28;20205;-74
2022/05/27 03:10:35;;;;;;;2.97;1.80;;;15.20;99.90;;;;;;5073500;28;20237;-74
2022/05/27 03:13:12;;;;;;;2.80;2.10;;;15.20;99.90;;;;;;5073297;28;20180;-74
2022/05/27 03:16:09;;;;;;;2.87;1.80;;;15.10;99.90;;;;;;5055910;28;20196;-74
2022/05/27 03:18:57;;;;;;;2.60;1.90;;;15.10;99.90;;;;;;5074240;28;20631;-74
2022/05/27 03:21:32;;;;;;;3.00;2.10;;;15.10;99.90;;;;;;5056512;28;20660;-74
2022/05/27 03:24:24;;;;;;;3.57;2.13;;;15.10;99.90;;;;;;5073087;28;20176;-74
2022/05/27 03:26:49;;;;;;;4.60;2.03;;;15.10;99.90;;;;;;5073259;28;20201;-74
2022/05/27 03:29:36;;;;;;;2.43;1.83;;;15.00;99.90;;;;;;5056166;28;20180;-74
2022/05/27 03:32:25;;;;;;;2.57;1.80;;;15.00;99.90;;;;;;5056295;28;20208;-74
2022/05/27 03:35:09;;;;;;;2.57;2.20;;;14.90;99.90;;;;;;5056089;28;20200;-74
2022/05/27 03:37:46;;;;;;;3.40;2.00;;;14.80;99.90;;;;;;5072843;28;20172;-74
2022/05/27 03:40:20;;;;;;;2.77;2.20;;;14.80;99.90;;;;;;5056353;28;20713;-74
2022/05/27 03:42:48;;;;;;;2.63;2.30;;;14.80;99.90;;;;;;5056902;28;20171;-74
2022/05/27 03:45:16;;;;;;;5.80;1.93;;;14.80;99.90;;;;;;5056543;28;20220;-74
2022/05/27 03:47:43;;;;;;;3.53;2.13;;;14.80;99.90;;;;;;5056223;28;20212;-74
2022/05/27 03:50:12;;;;;;;3.17;2.17;;;14.80;99.90;;;;;;5072912;28;20173;-74
2022/05/27 03:52:42;;;;;;;4.23;2.00;;;14.80;99.90;;;;;;5072506;28;20259;-74
2022/05/27 08:06:49;;;;;;;3.90;3.50;;;14.10;99.90;;;;;;4931773;28;20697;-76
2022/05/27 08:09:15;;;;;;;4.53;3.10;;;14.30;99.90;;;;;;4982956;28;20181;-76
2022/05/27 08:11:40;;;;;;;4.77;3.87;;;14.30;99.90;;;;;;4982625;28;20247;-76
2022/05/27 08:14:07;;;;;;;5.83;3.63;;;14.30;99.90;;;;;;4998928;28;20206;-76
2022/05/27 08:16:34;;;;;;;4.73;3.40;;;14.30;99.90;;;;;;4998831;28;20214;-76
2022/05/27 08:19:00;;;;;;;6.93;4.17;;;14.30;99.90;;;;;;5078351;22;20235;-76
2022/05/27 08:21:26;;;;;;;4.43;3.97;;;14.30;99.90;;;;;;5055748;28;20177;-76
2022/05/27 08:23:52;;;;;;;5.33;3.83;;;14.40;99.90;;;;;;5038692;28;20665;-76
2022/05/27 08:26:18;;;;;;;4.70;3.77;;;14.40;99.90;;;;;;5055442;28;20201;-75
2022/05/27 08:28:44;;;;;;;4.17;3.10;;;14.50;99.90;;;;;;5038670;28;20195;-76
2022/05/27 08:31:10;;;;;;;4.87;3.60;;;14.60;99.90;;;;;;5055263;28;20195;-76
2022/05/27 08:39:16;;;;;;;2.30;2.00;;;14.70;99.90;;;;;;5035623;28;20190;-76
2022/05/27 08:41:45;;;;;;;1.73;1.63;;;14.70;99.90;;;;;;5038619;28;20177;-76
2022/05/27 08:44:11;;;;;;;5.17;1.70;;;14.80;99.90;;;;;;5055005;28;20179;-76
2022/05/27 08:47:04;;;;;;;1.60;1.50;;;15.00;99.90;;;;;;5072775;28;20201;-76
2022/05/27 08:49:43;;;;;;;1.53;1.43;;;15.10;99.90;;;;;;5073335;28;20172;-76
2022/05/27 08:52:19;;;;;;;1.50;1.40;;;15.00;99.90;;;;;;5054863;28;20177;-76
2022/05/27 08:54:51;;;;;;;1.50;1.30;;;15.00;99.90;;;;;;5055121;28;20268;-76
2022/05/27 09:00:02;;;;;;;1.70;1.60;;;15.00;99.90;;;;;;5057934;28;20772;-76
2022/05/27 09:02:37;;;;;;;1.53;1.40;;;15.10;99.90;;;;;;5054864;28;20192;-76
2022/05/27 09:05:28;;;;;;;1.40;1.30;;;15.10;99.90;;;;;;5054750;28;20169;-75
2022/05/27 09:08:16;;;;;;;1.30;1.20;;;15.00;99.90;;;;;;5072588;28;20401;-76
2022/05/27 09:11:12;;;;;;;2.27;1.30;;;15.00;99.90;;;;;;5054595;28;20177;-76
2022/05/27 09:13:48;;;;;;;2.80;1.20;;;15.00;99.90;;;;;;5054158;28;20256;-75
2022/05/27 09:16:26;;;;;;;1.03;1.00;;;15.10;99.90;;;;;;5054692;28;20200;-76
2022/05/27 09:19:05;;;;;;;1.73;1.10;;;15.10;99.90;;;;;;5054190;28;20212;-76
2022/05/27 09:21:40;;;;;;;1.10;1.00;;;15.10;99.90;;;;;;5054555;28;20168;-76
2022/05/27 09:24:14;;;;;;;1.70;1.30;;;15.10;99.90;;;;;;5054608;28;20252;-76
2022/05/27 09:27:03;;;;;;;1.57;1.20;;;15.10;99.90;;;;;;5072273;28;20267;-76
2022/05/27 09:29:28;;;;;;;2.37;1.20;;;15.10;99.90;;;;;;5054536;28;20192;-76
2022/05/27 09:32:02;;;;;;;1.93;1.60;;;15.10;99.90;;;;;;5054167;28;20252;-76
2022/05/27 09:34:31;;;;;;;2.50;1.67;;;14.60;99.90;;;;;;5054628;28;20222;-76
2022/05/27 09:37:00;;;;;;;1.53;1.37;;;14.50;99.90;;;;;;5055254;28;20169;-76
2022/05/27 09:39:27;;;;;;;1.73;1.50;;;14.40;99.90;;;;;;5037996;28;20204;-76
2022/05/27 09:42:25;;;;;;;1.60;1.50;;;14.40;99.90;;;;;;5037407;28;20230;-76
2022/05/27 09:44:54;;;;;;;1.80;1.30;;;14.30;99.90;;;;;;5054361;28;20173;-76
2022/05/27 09:47:21;;;;;;;2.00;1.20;;;14.20;99.90;;;;;;5037841;28;20209;-76
2022/05/27 09:50:09;;;;;;;2.70;1.30;;;14.30;99.90;;;;;;5054142;28;20222;-76
2022/05/27 09:52:39;;;;;;;0.97;0.90;;;14.20;99.90;;;;;;5056732;28;20190;-76
2022/05/27 09:55:36;;;;;;;2.37;1.00;;;14.10;99.90;;;;;;5054458;28;20278;-76
2022/05/27 09:58:05;;;;;;;1.13;1.00;;;14.30;99.90;;;;;;5029816;28;20570;-76
2022/05/27 10:00:51;;;;;;;1.50;0.83;;;14.50;99.90;;;;;;5054212;28;20681;-76
2022/05/27 10:03:33;;;;;;;1.10;1.00;;;14.70;99.90;;;;;;5053957;28;20177;-75
2022/05/27 10:06:10;;;;;;;1.00;0.90;;;14.70;99.90;;;;;;5037362;28;20177;-75
2022/05/27 10:08:38;;;;;;;1.33;0.90;;;14.80;99.90;;;;;;5053926;28;20597;-76
2022/05/27 10:11:16;;;;;;;1.10;1.00;;;14.90;99.90;;;;;;5053809;28;20200;-76
2022/05/27 10:13:42;;;;;;;2.50;1.13;;;14.80;99.90;;;;;;5054229;28;20173;-76
2022/05/27 10:16:13;;;;;;;1.10;1.00;;;14.80;99.90;;;;;;5053932;28;20197;-76
2022/05/27 10:18:40;;;;;;;1.20;1.07;;;14.80;99.90;;;;;;5053604;28;20204;-76
2022/05/27 10:21:12;;;;;;;2.10;1.10;;;14.70;99.90;;;;;;5053800;28;20181;-75
2022/05/27 10:23:41;;;;;;;1.30;1.20;;;14.60;99.90;;;;;;5053724;28;20260;-76
2022/05/27 10:26:24;;;;;;;2.03;1.50;;;14.60;99.90;;;;;;5056057;28;20306;-76
2022/05/27 10:29:10;;;;;;;2.13;1.37;;;14.50;99.90;;;;;;5057669;28;20185;-76
2022/05/27 10:31:36;;;;;;;2.13;1.20;;;14.40;99.90;;;;;;5041453;28;20711;-75
2022/05/27 10:34:03;;;;;;;1.53;1.30;;;14.40;99.90;;;;;;5040729;28;20553;-75
2022/05/27 10:37:06;;;;;;;1.27;1.17;;;14.40;99.90;;;;;;5040860;28;20639;-76
2022/05/27 10:39:57;;;;;;;1.30;1.20;;;14.50;99.90;;;;;;4993723;28;20179;-76
2022/05/27 10:42:28;;;;;;;1.27;1.17;;;14.50;99.90;;;;;;5054730;28;20181;-76
2022/05/27 10:44:55;;;;;;;1.40;1.30;;;14.50;99.90;;;;;;5057501;28;20173;-76
2022/05/27 10:47:50;;;;;;;3.83;1.60;;;14.50;99.90;;;;;;5057041;28;20217;-75
2022/05/27 10:50:22;;;;;;;2.60;1.77;;;14.50;99.90;;;;;;5075514;28;20164;-76
2022/05/27 10:53:16;;;;;;;3.73;1.83;;;14.50;99.90;;;;;;5056937;28;20169;-76
2022/05/27 10:56:00;;;;;;;2.50;1.70;;;14.50;99.90;;;;;;5057195;28;20172;-76
2022/05/27 11:02:04;;;;;;;2.20;2.00;;;14.50;99.90;;;;;;5075130;28;20156;-76
2022/05/27 11:04:32;;;;;;;3.97;2.03;;;14.50;99.90;;;;;;5074826;28;20215;-76
2022/05/27 11:07:08;;;;;;;2.57;1.90;;;14.60;99.90;;;;;;5057011;28;20193;-76
2022/05/27 11:09:57;;;;;;;3.13;2.03;;;14.70;99.90;;;;;;5074777;28;20244;-75
2022/05/27 11:15:10;;;;;;;2.57;2.17;;;14.90;99.90;;;;;;5074576;28;20169;-75
2022/05/27 11:15:55;;;;;;;2.40;2.00;;;15.10;99.90;;;;;;5074281;28;20530;-75
2022/05/27 11:18:39;;;;;;;2.43;2.17;;;15.30;99.90;;;;;;5056446;28;20203;-76
2022/05/27 11:21:29;;;;;;;3.30;2.10;;;15.50;99.90;;;;;;5056580;28;20181;-76
2022/05/27 11:24:32;;;;;;;2.60;2.37;;;15.50;99.90;;;;;;5056445;28;20176;-76
2022/05/27 11:27:52;;;;;;;2.27;1.93;;;15.70;99.90;;;;;;5074290;28;20207;-75
2022/05/27 11:30:44;;;;;;;2.50;2.13;;;15.80;99.90;;;;;;5023446;28;20197;-76
2022/05/27 11:33:10;;;;;;;2.60;2.10;;;15.60;99.90;;;;;;5056227;28;20165;-75
2022/05/27 11:35:45;;;;;;;3.27;2.03;;;15.50;99.90;;;;;;5056125;28;20292;-75
2022/05/27 11:38:22;;;;;;;3.23;2.00;;;15.40;99.90;;;;;;5074215;28;20192;-76
2022/05/27 11:41:13;;;;;;;2.07;1.80;;;15.40;99.90;;;;;;5056065;28;20550;-75
2022/05/27 11:43:58;;;;;;;3.13;2.07;;;15.90;99.90;;;;;;5056042;28;20749;-76
2022/05/27 11:46:41;;;;;;;2.60;2.07;;;16.20;99.90;;;;;;5056171;28;20686;-76
2022/05/27 11:49:27;;;;;;;3.70;1.90;;;16.60;99.90;;;;;;5055998;28;20727;-76
2022/05/27 11:51:58;;;;;;;2.13;1.80;;;16.80;99.90;;;;;;5055999;28;20173;-76
2022/05/27 11:55:01;;;;;;;3.33;2.20;;;16.80;99.90;;;;;;5073785;28;20172;-76
2022/05/27 11:57:53;;;;;;;6.20;2.00;;;16.90;99.90;;;;;;5055779;28;20678;-75
2022/05/27 12:00:24;;;;;;;1.90;1.80;;;17.10;99.90;;;;;;5055883;28;20176;-76
2022/05/27 12:03:05;;;;;;;3.20;1.90;;;17.60;99.90;;;;;;5073572;28;20188;-76
2022/05/27 12:05:53;;;;;;;2.47;2.27;;;18.00;99.90;;;;;;5073662;28;20184;-76
2022/05/27 12:08:32;;;;;;;2.93;1.73;;;18.40;99.90;;;;;;5038931;28;20235;-75
2022/05/27 12:11:07;;;;;;;3.03;2.00;;;18.30;99.90;;;;;;5073687;28;20172;-76
2022/05/27 12:13:44;;;;;;;2.83;2.43;;;18.40;99.90;;;;;;5055494;28;20195;-76
2022/05/27 12:16:27;;;;;;;2.87;1.80;;;18.60;99.90;;;;;;5055455;28;20192;-76
2022/05/27 12:19:08;;;;;;;2.43;1.77;;;18.40;99.90;;;;;;5040495;28;20217;-75
2022/05/27 12:21:44;;;;;;;3.03;1.70;;;18.70;99.90;;;;;;5039522;28;20609;-75
2022/05/27 12:24:29;;;;;;;2.83;1.83;;;18.40;99.90;;;;;;5039220;28;20234;-76
2022/05/27 12:26:57;;;;;;;2.50;1.87;;;18.10;99.90;;;;;;5055437;28;20207;-75
2022/05/27 12:29:24;;;;;;;2.90;2.00;;;18.10;99.90;;;;;;5055452;28;20203;-76
2022/05/27 12:31:51;;;;;;;2.00;1.80;;;18.40;99.90;;;;;;5055166;28;20267;-76
2022/05/27 12:34:26;;;;;;;3.70;1.77;;;18.60;99.90;;;;;;5038956;28;20181;-76
2022/05/27 12:36:59;;;;;;;3.37;1.80;;;18.50;99.90;;;;;;5055228;28;20259;-75
2022/05/27 12:39:27;;;;;;;2.27;1.87;;;18.30;99.90;;;;;;5055250;28;20208;-76
2022/05/27 12:42:33;;;;;;;2.77;1.90;;;18.10;99.90;;;;;;5054945;28;20643;-76
2022/05/27 12:45:12;;;;;;;4.03;1.90;;;18.30;99.90;;;;;;4975310;28;20270;-75
2022/05/27 12:47:38;;;;;;;2.30;1.93;;;18.20;99.90;;;;;;5049235;28;20220;-76
2022/05/27 12:50:17;;;;;;;2.47;1.60;;;18.00;99.90;;;;;;5038498;28;20181;-75
2022/05/27 12:52:49;;;;;;;2.43;1.80;;;18.10;99.90;;;;;;5054788;28;20616;-76
2022/05/27 13:00:55;;;;;;;2.17;1.70;;;18.10;99.90;;;;;;5054757;28;20177;-75
2022/05/27 13:01:22;;;;;;;2.80;1.70;;;18.00;99.90;;;;;;5057917;28;20677;-75
2022/05/27 13:03:52;;;;;;;1.83;1.53;;;18.40;99.90;;;;;;5054687;28;20177;-76
2022/05/27 13:06:25;;;;;;;3.17;1.90;;;18.50;99.90;;;;;;5038379;28;20181;-75
2022/05/27 13:08:53;;;;;;;3.47;1.80;;;18.90;99.90;;;;;;5054686;28;20674;-76
2022/05/27 13:11:21;;;;;;;3.33;1.63;;;19.20;99.90;;;;;;5072565;28;20243;-75
2022/05/27 13:13:49;;;;;;;2.13;1.60;;;19.50;99.90;;;;;;5072309;28;20176;-76
2022/05/27 13:16:44;;;;;;;2.10;1.57;;;19.70;99.90;;;;;;5037975;28;20177;-76
2022/05/27 13:19:23;;;;;;;2.23;1.67;;;19.60;99.90;;;;;;5028658;28;20244;-76
2022/05/27 13:21:58;;;;;;;2.70;1.80;;;19.80;99.90;;;;;;5054563;28;20266;-75
2022/05/27 13:24:36;;;;;;;1.90;1.53;;;19.90;99.90;;;;;;5054854;28;20711;-76
2022/05/27 13:27:22;;;;;;;3.10;1.60;;;19.60;99.90;;;;;;5038034;28;20200;-76
2022/05/27 13:29:54;;;;;;;2.77;1.60;;;19.80;99.90;;;;;;5072178;28;20185;-76
2022/05/27 13:32:27;;;;;;;3.20;1.80;;;20.10;99.90;;;;;;5054687;28;20170;-76
2022/05/27 13:35:12;;;;;;;2.80;1.60;;;20.10;99.90;;;;;;5054401;28;20177;-76
2022/05/27 13:37:38;;;;;;;4.00;1.70;;;20.30;99.90;;;;;;5054155;28;20197;-76
2022/05/27 13:40:10;;;;;;;3.20;1.60;;;20.00;99.90;;;;;;5054427;28;20169;-76
2022/05/27 13:42:42;;;;;;;2.10;1.40;;;20.10;99.90;;;;;;5054023;28;20203;-76
2022/05/27 13:45:35;;;;;;;2.37;1.63;;;20.30;99.90;;;;;;5055118;28;20177;-76
2022/05/27 13:48:17;;;;;;;3.33;1.60;;;20.30;99.90;;;;;;5045909;28;20581;-76
2022/05/27 13:50:45;;;;;;;2.40;1.40;;;20.70;99.90;;;;;;5054467;28;20200;-76
2022/05/27 13:53:22;;;;;;;1.50;1.40;;;20.60;99.90;;;;;;5053951;28;20260;-76
2022/05/27 13:55:52;;;;;;;2.43;1.73;;;20.60;99.90;;;;;;5054139;28;20177;-75
2022/05/27 13:58:19;;;;;;;3.17;1.67;;;20.70;99.90;;;;;;5054348;28;20271;-76
2022/05/27 14:00:45;;;;;;;1.92;1.70;;;20.70;99.90;;;;;;5075845;28;20512;-76
2022/05/27 14:03:26;;;;;;;5.03;1.77;;;21.00;99.90;;;;;;5041552;28;20673;-76
2022/05/27 14:06:00;;;;;;;2.30;1.70;;;20.80;99.90;;;;;;5057875;28;20172;-75
2022/05/27 14:08:41;;;;;;;2.00;1.50;;;20.10;99.90;;;;;;5057705;28;20216;-76
2022/05/27 14:11:35;;;;;;;2.90;1.70;;;20.00;99.90;;;;;;5041548;28;20545;-76
2022/05/27 14:14:01;;;;;;;1.97;1.50;;;20.10;99.90;;;;;;5057590;28;20185;-75
2022/05/27 14:16:31;;;;;;;1.80;1.50;;;20.50;99.90;;;;;;5041198;28;20188;-76
2022/05/27 14:19:17;;;;;;;2.97;1.77;;;20.70;99.90;;;;;;5064973;22;20248;-76
2022/05/27 14:24:36;;;;;;;5.07;1.90;;;20.90;99.90;;;;;;5075819;28;20206;-76
2022/05/27 14:27:10;;;;;;;1.90;1.45;;;21.10;99.90;;;;;;5057688;28;20204;-76
2022/05/27 14:29:37;;;;;;;2.03;1.52;;;21.30;99.90;;;;;;5041846;28;20200;-76
2022/05/27 14:32:13;;;;;;;2.25;1.60;;;21.20;97.60;;;;;;5040977;28;20173;-76
2022/05/27 14:34:39;;;;;;;3.55;1.60;;;21.00;98.40;;;;;;5057387;28;20552;-76
2022/05/27 14:37:15;;;;;;;2.40;1.73;;;21.00;97.30;;;;;;5040790;28;20173;-76
2022/05/27 14:39:42;;;;;;;2.45;1.85;;;20.80;97.10;;;;;;5057480;28;20242;-76
2022/05/27 14:42:08;;;;;;;4.00;1.70;;;20.50;96.90;;;;;;5056978;28;20173;-76
2022/05/27 14:44:45;;;;;;;3.20;1.80;;;20.30;99.80;;;;;;5040749;28;20549;-76
2022/05/27 14:47:32;;;;;;;3.30;1.70;;;20.40;98.10;;;;;;5040833;28;20210;-76
2022/05/27 14:50:04;;;;;;;2.97;1.85;;;20.40;98.30;;;;;;5057033;28;20173;-76
2022/05/27 14:52:36;;;;;;;3.60;2.00;;;20.30;99.90;;;;;;5074624;28;20157;-76
2022/05/27 14:55:07;;;;;;;3.03;1.85;;;20.50;97.00;;;;;;5040448;28;20173;-76
2022/05/27 14:57:34;;;;;;;3.33;1.92;;;20.80;97.00;;;;;;5057009;28;20177;-76
2022/05/27 15:00:13;;;;;;;3.37;1.80;;;20.80;96.80;;;;;;5057100;28;20196;-76
2022/05/27 15:02:39;;;;;;;1.95;1.73;;;20.60;97.60;;;;;;5056711;28;20199;-76
2022/05/27 15:05:06;;;;;;;2.93;1.80;;;20.70;98.70;;;;;;5056755;28;20240;-76
2022/05/27 15:07:54;;;;;;;3.37;1.63;;;20.60;98.40;;;;;;5074462;28;20197;-76
2022/05/27 15:10:34;;;;;;;2.28;1.80;;;20.70;98.40;;;;;;5056198;28;20173;-76
2022/05/27 15:13:30;;;;;;;3.65;1.80;;;20.90;97.10;;;;;;5056628;28;20171;-76
2022/05/27 15:16:12;;;;;;;3.03;1.67;;;20.90;95.60;;;;;;5031830;28;20191;-76
2022/05/27 15:18:49;;;;;;;3.60;1.60;;;20.40;90.80;;;;;;5041723;28;20265;-76
2022/05/27 15:21:27;;;;;;;3.90;1.55;;;20.00;94.20;;;;;;5056504;28;20514;-76
2022/05/27 15:23:57;;;;;;;4.10;1.90;;;19.70;93.50;;;;;;5056331;28;20241;-76
2022/05/27 15:34:47;;;;;;;1.60;1.40;;;19.50;90.30;;;;;;5074402;28;20172;-76
2022/05/27 15:37:14;;;;;;;3.13;1.50;;;19.90;85.70;;;;;;5056323;28;20179;-76
2022/05/27 15:39:39;;;;;;;2.13;1.50;;;20.10;84.00;;;;;;5056224;28;20184;-76
2022/05/27 15:42:07;;;;;;;2.60;1.50;;;20.40;84.70;;;;;;5022962;28;20189;-76
2022/05/27 15:44:32;;;;;;;2.50;1.70;;;20.50;84.70;;;;;;5056029;28;20219;-76
2022/05/27 15:46:58;;;;;;;3.50;1.50;;;19.90;82.10;;;;;;5023207;28;20232;-76
2022/05/27 15:49:24;;;;;;;2.77;1.70;;;20.00;82.10;;;;;;5039751;28;20201;-76
2022/05/27 15:51:49;;;;;;;2.42;1.40;;;20.30;85.10;;;;;;5039390;28;20177;-76
2022/05/27 15:54:17;;;;;;;2.88;1.35;;;20.50;83.00;;;;;;5022889;28;20177;-76
2022/05/27 15:56:42;;;;;;;3.17;1.60;;;20.50;81.60;;;;;;5039541;28;20211;-76
2022/05/27 15:59:08;;;;;;;3.30;1.50;;;20.20;82.90;;;;;;5039016;28;20235;-76
2022/05/27 16:01:33;;;;;;;1.90;1.40;;;20.10;87.80;;;;;;5056176;28;20545;-76
2022/05/27 16:04:01;;;;;;;3.58;1.50;;;20.20;83.50;;;;;;5022483;28;20169;-76
2022/05/27 16:06:27;;;;;;;5.05;1.60;;;20.20;85.50;;;;;;5056058;28;20175;-77
2022/05/27 16:08:52;;;;;;;3.88;1.50;;;20.30;84.10;;;;;;5039141;28;20197;-76
2022/05/27 16:11:18;;;;;;;2.72;1.50;;;20.30;81.40;;;;;;5039025;28;20185;-76
2022/05/27 16:13:44;;;;;;;1.87;1.40;;;20.30;78.20;;;;;;5038798;28;20183;-76
2022/05/27 16:18:54;;;;;;;2.53;1.50;;;20.00;81.80;;;;;;5058097;28;20219;-76
2022/05/27 16:21:20;;;;;;;3.07;1.70;;;19.70;81.80;;;;;;5022396;28;20169;-76
2022/05/27 16:23:47;;;;;;;4.33;1.57;;;19.80;84.40;;;;;;5055174;28;20177;-76
2022/05/27 16:26:13;;;;;;;3.70;1.50;;;19.90;83.90;;;;;;5055246;28;20255;-76
2022/05/27 16:28:39;;;;;;;2.77;1.40;;;20.00;83.30;;;;;;5038755;28;20234;-76
2022/05/27 16:31:05;;;;;;;3.10;1.60;;;20.00;79.20;;;;;;5055224;28;20205;-76
2022/05/27 16:33:31;;;;;;;2.93;1.47;;;19.90;79.30;;;;;;5072892;28;20177;-76
2022/05/27 16:35:57;;;;;;;3.00;1.60;;;20.00;77.00;;;;;;5038644;28;20183;-76
2022/05/27 16:38:24;;;;;;;3.53;1.42;;;20.00;77.40;;;;;;5055227;28;20214;-76
2022/05/27 16:40:50;;;;;;;2.90;1.30;;;20.00;76.10;;;;;;5054861;28;20181;-76
2022/05/27 16:43:16;;;;;;;2.73;1.47;;;19.90;73.20;;;;;;5022071;28;20177;-76
2022/05/27 16:45:43;;;;;;;4.30;1.40;;;19.90;71.70;;;;;;5038558;28;20258;-76
2022/05/27 16:48:08;;;;;;;4.70;1.50;;;19.80;71.90;;;;;;5038256;28;20205;-76
2022/05/27 16:50:34;;;;;;;3.77;1.53;;;19.60;70.80;;;;;;5021867;28;20169;-76
2022/05/27 16:53:00;;;;;;;4.53;1.50;;;19.50;71.00;;;;;;5054900;28;20188;-76
2022/05/27 16:55:26;;;;;;;2.60;1.43;;;19.40;73.80;;;;;;5038435;28;20185;-76
2022/05/27 16:57:52;;;;;;;2.60;1.50;;;19.50;76.70;;;;;;5054802;28;20206;-76
2022/05/27 17:00:21;;;;;;;3.43;1.67;;;19.50;76.70;;;;;;5038038;28;20185;-76
2022/05/27 17:02:47;;;;;;;2.30;1.40;;;19.40;75.00;;;;;;5054605;28;20185;-76
2022/05/27 17:05:14;;;;;;;3.83;1.80;;;19.20;75.80;;;;;;5054643;28;20215;-76
2022/05/27 17:07:40;;;;;;;2.17;1.37;;;18.80;77.90;;;;;;5037881;28;20216;-76
2022/05/27 17:10:07;;;;;;;3.17;1.57;;;18.60;79.00;;;;;;5054719;28;20177;-76
2022/05/27 17:12:33;;;;;;;2.00;1.40;;;18.40;80.50;;;;;;5054289;28;20644;-76
2022/05/27 17:14:58;;;;;;;3.50;1.30;;;18.30;82.00;;;;;;5037922;28;20177;-76
2022/05/27 17:17:24;;;;;;;3.47;1.73;;;18.20;83.10;;;;;;5021143;28;20188;-76
2022/05/27 17:19:50;;;;;;;3.77;1.40;;;18.30;80.50;;;;;;5021462;28;20219;-76
2022/05/27 17:22:15;;;;;;;2.83;1.40;;;18.40;76.30;;;;;;5054374;28;20858;-76
2022/05/27 17:24:42;;;;;;;2.77;1.47;;;18.60;78.60;;;;;;5037580;28;20185;-76
2022/05/27 17:27:07;;;;;;;2.50;1.60;;;18.80;76.40;;;;;;5054422;28;20211;-76
2022/05/27 17:29:37;;;;;;;2.60;1.70;;;18.90;75.70;;;;;;5037758;28;20279;-76
2022/05/27 17:32:06;;;;;;;4.67;1.50;;;18.80;73.20;;;;;;5053910;28;20173;-76
2022/05/27 17:34:32;;;;;;;4.70;1.50;;;18.70;74.50;;;;;;5037322;28;20173;-76
2022/05/27 17:36:58;;;;;;;2.57;1.33;;;18.60;76.90;;;;;;5021159;28;20181;-76
2022/05/27 17:39:25;;;;;;;2.67;1.70;;;18.60;78.00;;;;;;5072049;28;20193;-76
2022/05/27 17:41:51;;;;;;;4.40;1.60;;;18.50;78.40;;;;;;5054154;28;20177;-76
2022/05/27 17:44:17;;;;;;;4.03;1.50;;;18.30;78.50;;;;;;5037781;28;20543;-76
2022/05/27 17:52:12;;;;;;;2.00;1.40;;;18.30;81.10;;;;;;5042955;28;20180;-76
2022/05/27 17:54:38;;;;;;;2.17;1.50;;;18.10;81.40;;;;;;5071836;28;20177;-76
2022/05/27 17:57:04;;;;;;;3.87;1.50;;;18.00;82.90;;;;;;5037655;28;20184;-76
2022/05/27 17:59:30;;;;;;;4.93;1.63;;;17.90;83.60;;;;;;5037162;28;20201;-76
2022/05/27 18:01:56;;;;;;;2.77;1.50;;;17.90;82.80;;;;;;5037193;28;20330;-76
2022/05/27 18:04:21;;;;;;;3.47;1.50;;;18.00;82.00;;;;;;5021347;28;20246;-76
2022/05/27 18:06:47;;;;;;;2.23;1.30;;;18.00;81.30;;;;;;5053692;28;20203;-76
2022/05/27 18:09:13;;;;;;;3.63;1.63;;;17.90;80.30;;;;;;5021021;28;20230;-76
2022/05/27 18:11:39;;;;;;;2.30;1.87;;;17.90;78.80;;;;;;5071770;28;20540;-76
2022/05/27 18:14:06;;;;;;;2.40;1.60;;;18.00;82.30;;;;;;5071800;28;20178;-76
2022/05/27 18:16:32;;;;;;;3.80;1.70;;;17.90;79.10;;;;;;5037116;28;20188;-76